createdAt,value
2018-07-30T00:00:31.432Z,25.54
2018-07-30T00:03:00.524Z,25.56
2018-07-30T00:05:29.658Z,25.58
2018-07-30T00:07:58.731Z,25.64
2018-07-30T00:10:27.816Z,25.63
2018-07-30T00:12:56.887Z,25.57
2018-07-30T00:15:26.000Z,25.57
2018-07-30T00:17:55.064Z,25.52
2018-07-30T00:20:24.176Z,25.55
2018-07-30T00:22:53.253Z,25.62
2018-07-30T00:25:22.351Z,25.63
2018-07-30T00:27:51.420Z,25.56
2018-07-30T00:30:21.508Z,25.50
2018-07-30T00:32:50.644Z,25.53
2018-07-30T00:35:19.740Z,25.57
2018-07-30T00:37:48.832Z,25.55
2018-07-30T00:40:17.896Z,25.50
2018-07-30T00:42:48.384Z,25.46
2018-07-30T00:45:18.000Z,25.43
2018-07-30T00:47:47.087Z,25.43
2018-07-30T00:50:16.160Z,25.45
2018-07-30T00:52:45.256Z,25.48
2018-07-30T00:55:14.340Z,25.47
2018-07-30T00:57:43.427Z,25.49
2018-07-30T01:00:12.492Z,25.50
2018-07-30T01:02:41.591Z,25.40
2018-07-30T01:05:10.660Z,25.24
2018-07-30T01:07:39.810Z,25.31
2018-07-30T01:10:08.845Z,25.22
2018-07-30T01:12:37.942Z,25.27
2018-07-30T01:15:07.003Z,25.32
2018-07-30T01:17:36.075Z,25.27
2018-07-30T01:20:05.161Z,25.18
2018-07-30T01:22:34.255Z,25.15
2018-07-30T01:25:03.323Z,25.20
2018-07-30T01:27:32.419Z,25.24
2018-07-30T01:30:01.512Z,25.22
2018-07-30T01:32:30.627Z,25.10
2018-07-30T01:34:59.720Z,25.04
2018-07-30T01:37:28.831Z,25.05
2018-07-30T01:39:57.923Z,25.04
2018-07-30T01:42:27.023Z,25.01
2018-07-30T01:44:56.104Z,24.91
2018-07-30T01:47:25.196Z,24.92
2018-07-30T01:49:54.276Z,24.82
2018-07-30T01:52:23.392Z,24.88
2018-07-30T01:54:52.464Z,24.87
2018-07-30T01:57:21.559Z,24.82
2018-07-30T01:59:50.636Z,24.73
2018-07-30T02:02:19.736Z,24.84
2018-07-30T02:04:49.115Z,24.95
2018-07-30T02:07:18.296Z,24.92
2018-07-30T02:09:47.372Z,24.83
2018-07-30T02:12:16.472Z,24.73
2018-07-30T02:14:45.548Z,24.77
2018-07-30T02:17:14.644Z,24.85
2018-07-30T02:19:43.753Z,24.91
2018-07-30T02:22:12.848Z,24.75
2018-07-30T02:24:41.916Z,24.64
2018-07-30T02:27:11.009Z,24.71
2018-07-30T02:29:40.077Z,24.56
2018-07-30T02:32:09.172Z,24.46
2018-07-30T02:34:38.252Z,24.46
2018-07-30T02:37:07.345Z,24.63
2018-07-30T02:39:36.433Z,24.71
2018-07-30T02:42:05.536Z,24.78
2018-07-30T02:44:34.590Z,24.84
2018-07-30T02:47:03.696Z,24.86
2018-07-30T02:49:32.796Z,24.87
2018-07-30T02:52:01.908Z,24.83
2018-07-30T02:54:30.998Z,24.79
2018-07-30T02:57:00.120Z,24.77
2018-07-30T02:59:29.204Z,24.76
2018-07-30T03:01:58.280Z,24.78
2018-07-30T03:04:27.369Z,24.83
2018-07-30T03:06:56.464Z,24.81
2018-07-30T03:09:25.608Z,24.74
2018-07-30T03:11:54.693Z,24.75
2018-07-30T03:14:23.803Z,24.78
2018-07-30T03:16:52.899Z,24.79
2018-07-30T03:19:22.000Z,24.80
2018-07-30T03:21:51.060Z,24.70
2018-07-30T03:24:20.160Z,24.62
2018-07-30T03:26:50.260Z,24.62
2018-07-30T03:29:19.367Z,24.57
2018-07-30T03:31:48.640Z,24.53
2018-07-30T03:34:17.808Z,24.54
2018-07-30T03:36:47.704Z,24.53
2018-07-30T03:39:17.747Z,24.48
2018-07-30T03:41:47.743Z,24.40
2018-07-30T03:44:17.743Z,24.35
2018-07-30T03:46:47.765Z,24.36
2018-07-30T03:49:17.724Z,24.38
2018-07-30T03:51:46.796Z,24.38
2018-07-30T03:54:15.906Z,24.39
2018-07-30T03:56:44.982Z,24.40
2018-07-30T03:59:14.088Z,24.38
2018-07-30T04:01:43.165Z,24.36
2018-07-30T04:04:12.254Z,24.27
2018-07-30T04:06:41.344Z,24.27
2018-07-30T04:09:10.431Z,24.14
2018-07-30T04:11:39.535Z,24.05
2018-07-30T04:14:09.003Z,24.02
2018-07-30T04:16:42.501Z,24.10
2018-07-30T04:19:11.615Z,24.16
2018-07-30T04:21:40.688Z,24.15
2018-07-30T04:24:09.784Z,24.19
2018-07-30T04:26:38.875Z,24.23
2018-07-30T04:29:07.981Z,24.21
2018-07-30T04:31:37.047Z,24.24
2018-07-30T04:34:06.316Z,24.29
2018-07-30T04:36:35.604Z,24.29
2018-07-30T04:39:09.185Z,24.15
2018-07-30T04:41:38.328Z,24.09
2018-07-30T04:44:07.536Z,24.15
2018-07-30T04:46:37.764Z,24.22
2018-07-30T04:49:06.980Z,24.30
2018-07-30T04:51:36.847Z,24.42
2018-07-30T04:54:06.487Z,24.51
2018-07-30T04:56:35.564Z,24.58
2018-07-30T04:59:04.680Z,24.64
2018-07-30T05:01:33.743Z,24.71
2018-07-30T05:04:02.837Z,24.88
2018-07-30T05:06:31.948Z,24.96
2018-07-30T05:09:01.063Z,25.01
2018-07-30T05:11:30.152Z,24.93
2018-07-30T05:13:59.258Z,24.93
2018-07-30T05:16:28.355Z,24.95
2018-07-30T05:18:57.452Z,25.11
2018-07-30T05:21:26.631Z,25.29
2018-07-30T05:23:55.739Z,25.43
2018-07-30T05:26:24.837Z,25.53
2018-07-30T05:28:54.214Z,25.62
2018-07-30T05:31:23.371Z,25.70
2018-07-30T05:33:52.464Z,25.71
2018-07-30T05:36:21.586Z,25.74
2018-07-30T05:38:50.683Z,25.84
2018-07-30T05:41:19.789Z,25.97
2018-07-30T05:43:49.273Z,26.07
2018-07-30T05:46:18.361Z,26.25
2018-07-30T05:48:47.436Z,26.40
2018-07-30T05:51:16.589Z,26.65
2018-07-30T05:53:45.680Z,26.94
2018-07-30T05:56:14.776Z,27.17
2018-07-30T05:58:43.880Z,27.27
2018-07-30T06:01:12.973Z,27.45
2018-07-30T06:03:42.060Z,27.66
2018-07-30T06:06:11.203Z,27.87
2018-07-30T06:08:40.312Z,28.14
2018-07-30T06:11:09.417Z,28.18
2018-07-30T06:13:38.707Z,28.20
2018-07-30T06:16:07.829Z,28.23
2018-07-30T06:18:36.912Z,28.39
2018-07-30T06:21:06.043Z,28.44
2018-07-30T06:23:35.168Z,28.41
2018-07-30T06:26:04.859Z,28.47
2018-07-30T06:28:33.924Z,28.42
2018-07-30T06:31:03.032Z,28.59
2018-07-30T06:33:32.197Z,28.77
2018-07-30T06:36:01.394Z,28.84
2018-07-30T06:38:30.819Z,28.86
2018-07-30T06:40:59.908Z,28.87
2018-07-30T06:43:29.058Z,28.95
2018-07-30T06:45:58.136Z,29.13
2018-07-30T06:48:27.240Z,29.25
2018-07-30T06:50:56.332Z,29.44
2018-07-30T06:53:25.439Z,29.46
2018-07-30T06:55:54.544Z,29.50
2018-07-30T06:58:23.648Z,29.49
2018-07-30T07:00:52.869Z,29.55
2018-07-30T07:03:22.039Z,29.61
2018-07-30T07:05:51.099Z,29.80
2018-07-30T07:08:20.236Z,30.02
2018-07-30T07:10:49.329Z,29.97
2018-07-30T07:13:18.427Z,29.85
2018-07-30T07:15:47.594Z,29.73
2018-07-30T07:18:16.729Z,29.78
2018-07-30T07:20:45.890Z,30.03
2018-07-30T07:23:14.939Z,30.25
2018-07-30T07:25:44.109Z,30.05
2018-07-30T07:28:13.252Z,29.93
2018-07-30T07:30:42.342Z,29.98
2018-07-30T07:33:11.444Z,29.93
2018-07-30T07:35:40.545Z,29.59
2018-07-30T07:38:09.656Z,29.31
2018-07-30T07:40:38.772Z,29.25
2018-07-30T07:43:07.894Z,29.45
2018-07-30T07:45:37.016Z,29.71
2018-07-30T07:48:06.101Z,29.68
2018-07-30T07:50:35.311Z,29.59
2018-07-30T07:53:04.333Z,29.68
2018-07-30T07:55:33.433Z,29.52
2018-07-30T07:58:02.517Z,29.34
2018-07-30T08:00:31.608Z,29.24
2018-07-30T08:03:00.719Z,29.49
2018-07-30T08:05:29.812Z,29.67
2018-07-30T08:07:58.900Z,29.72
2018-07-30T08:10:28.003Z,29.70
2018-07-30T08:12:57.077Z,29.79
2018-07-30T08:15:26.172Z,30.08
2018-07-30T08:17:55.261Z,30.19
2018-07-30T08:20:24.357Z,30.28
2018-07-30T08:22:53.471Z,30.18
2018-07-30T08:25:22.575Z,30.04
2018-07-30T08:27:51.656Z,30.11
2018-07-30T08:30:20.772Z,30.11
2018-07-30T08:32:49.868Z,30.20
2018-07-30T08:35:18.967Z,30.11
2018-07-30T08:37:48.076Z,30.26
2018-07-30T08:40:17.192Z,30.44
2018-07-30T08:42:46.285Z,30.37
2018-07-30T08:45:15.384Z,30.18
2018-07-30T08:47:44.500Z,30.10
2018-07-30T08:50:13.601Z,30.12
2018-07-30T08:52:42.663Z,30.14
2018-07-30T08:55:11.753Z,30.16
2018-07-30T08:57:40.850Z,29.90
2018-07-30T09:00:10.332Z,30.17
2018-07-30T09:02:39.973Z,30.39
2018-07-30T09:05:09.594Z,30.35
2018-07-30T09:07:38.718Z,30.35
2018-07-30T09:10:08.376Z,30.57
2018-07-30T09:12:38.047Z,30.49
2018-07-30T09:15:12.666Z,30.54
2018-07-30T09:17:42.138Z,31.09
2018-07-30T09:20:18.611Z,31.56
2018-07-30T09:22:47.805Z,31.28
2018-07-30T09:25:16.894Z,31.60
2018-07-30T09:27:46.048Z,32.00
2018-07-30T09:30:20.345Z,32.03
2018-07-30T09:32:49.652Z,32.00
2018-07-30T09:35:18.704Z,31.93
2018-07-30T09:37:47.847Z,31.90
2018-07-30T09:40:16.982Z,31.88
2018-07-30T09:42:46.080Z,32.07
2018-07-30T09:45:15.169Z,32.01
2018-07-30T09:47:44.310Z,32.15
2018-07-30T09:50:13.392Z,32.25
2018-07-30T09:52:42.497Z,32.20
2018-07-30T09:55:11.587Z,32.21
2018-07-30T09:57:40.679Z,32.11
2018-07-30T10:00:10.380Z,32.06
2018-07-30T10:02:39.496Z,32.00
2018-07-30T10:05:08.593Z,33.06
2018-07-30T10:07:37.733Z,32.64
2018-07-30T10:10:06.840Z,32.47
2018-07-30T10:12:36.224Z,32.47
2018-07-30T10:15:05.647Z,32.47
2018-07-30T10:17:34.850Z,32.36
2018-07-30T10:20:03.997Z,32.43
2018-07-30T10:22:33.108Z,32.41
2018-07-30T10:25:02.206Z,32.44
2018-07-30T10:27:31.333Z,32.63
2018-07-30T10:30:00.501Z,32.62
2018-07-30T10:32:29.584Z,32.79
2018-07-30T10:34:58.744Z,32.98
2018-07-30T10:37:27.853Z,32.81
2018-07-30T10:39:57.726Z,32.99
2018-07-30T10:42:27.088Z,33.11
2018-07-30T10:44:56.251Z,33.14
2018-07-30T10:47:25.318Z,33.17
2018-07-30T10:49:54.476Z,33.15
2018-07-30T10:52:23.561Z,33.16
2018-07-30T10:54:52.708Z,33.15
2018-07-30T10:57:21.819Z,33.17
2018-07-30T10:59:50.984Z,33.30
2018-07-30T11:02:21.476Z,33.45
2018-07-30T11:04:50.585Z,33.55
2018-07-30T11:07:19.702Z,33.52
2018-07-30T11:09:48.953Z,33.44
2018-07-30T11:12:18.040Z,33.36
2018-07-30T11:14:47.165Z,33.36
2018-07-30T11:17:16.321Z,33.58
2018-07-30T11:19:45.452Z,33.74
2018-07-30T11:22:14.592Z,33.98
2018-07-30T11:24:43.753Z,34.32
2018-07-30T11:27:13.629Z,34.34
2018-07-30T11:29:42.799Z,34.48
2018-07-30T11:32:12.983Z,34.56
2018-07-30T11:34:42.709Z,34.66
2018-07-30T11:37:11.829Z,34.61
2018-07-30T11:39:40.949Z,34.55
2018-07-30T11:42:10.236Z,34.58
2018-07-30T11:44:39.969Z,34.43
2018-07-30T11:47:09.213Z,34.26
2018-07-30T11:49:38.620Z,34.28
2018-07-30T11:52:08.108Z,34.10
2018-07-30T11:54:37.219Z,33.92
2018-07-30T11:57:06.329Z,33.85
2018-07-30T11:59:35.412Z,33.95
2018-07-30T12:02:04.520Z,34.05
2018-07-30T12:04:33.596Z,34.04
2018-07-30T12:07:07.241Z,33.93
2018-07-30T12:09:37.033Z,34.09
2018-07-30T12:12:06.137Z,33.95
2018-07-30T12:14:36.144Z,34.04
2018-07-30T12:17:05.412Z,34.13
2018-07-30T12:19:34.508Z,34.24
2018-07-30T12:22:03.724Z,34.60
2018-07-30T12:24:32.818Z,34.80
2018-07-30T12:27:02.180Z,34.63
2018-07-30T12:29:32.073Z,34.58
2018-07-30T12:32:01.211Z,34.82
2018-07-30T12:34:30.398Z,34.79
2018-07-30T12:36:59.520Z,34.88
2018-07-30T12:39:28.934Z,34.94
2018-07-30T12:41:58.099Z,35.17
2018-07-30T12:44:27.192Z,35.03
2018-07-30T12:46:56.309Z,34.97
2018-07-30T12:49:25.411Z,34.87
2018-07-30T12:51:54.568Z,34.77
2018-07-30T12:54:24.045Z,34.67
2018-07-30T12:56:53.261Z,34.62
2018-07-30T12:59:22.319Z,34.76
2018-07-30T13:01:51.464Z,34.88
2018-07-30T13:04:20.602Z,34.83
2018-07-30T13:06:49.704Z,34.68
2018-07-30T13:09:18.872Z,34.52
2018-07-30T13:11:47.976Z,34.72
2018-07-30T13:14:17.093Z,34.85
2018-07-30T13:16:46.189Z,34.59
2018-07-30T13:19:15.304Z,34.24
2018-07-30T13:21:44.392Z,34.14
2018-07-30T13:24:13.502Z,34.19
2018-07-30T13:26:42.671Z,34.28
2018-07-30T13:29:12.440Z,34.11
2018-07-30T13:31:41.569Z,34.27
2018-07-30T13:34:10.698Z,34.40
2018-07-30T13:36:39.781Z,34.51
2018-07-30T13:39:09.840Z,34.36
2018-07-30T13:41:39.419Z,34.39
2018-07-30T13:44:08.529Z,34.47
2018-07-30T13:46:37.896Z,34.43
2018-07-30T13:49:11.953Z,34.29
2018-07-30T13:51:41.157Z,34.28
2018-07-30T13:54:10.279Z,34.40
2018-07-30T13:56:39.356Z,34.45
2018-07-30T13:59:08.461Z,34.29
2018-07-30T14:01:37.548Z,34.04
2018-07-30T14:04:06.665Z,33.82
2018-07-30T14:06:35.861Z,33.66
2018-07-30T14:09:08.265Z,33.55
2018-07-30T14:11:37.357Z,33.44
2018-07-30T14:14:06.814Z,33.60
2018-07-30T14:16:35.951Z,33.81
2018-07-30T14:19:05.061Z,34.13
2018-07-30T14:21:34.373Z,34.58
2018-07-30T14:24:03.484Z,34.81
2018-07-30T14:26:32.869Z,34.79
2018-07-30T14:29:01.986Z,34.63
2018-07-30T14:31:31.136Z,34.62
2018-07-30T14:34:00.350Z,34.38
2018-07-30T14:36:29.457Z,33.99
2018-07-30T14:38:58.554Z,33.78
2018-07-30T14:41:27.670Z,33.91
2018-07-30T14:43:56.764Z,33.92
2018-07-30T14:46:25.868Z,34.07
2018-07-30T14:48:54.976Z,34.29
2018-07-30T14:51:24.944Z,34.44
2018-07-30T14:53:54.017Z,34.71
2018-07-30T14:56:23.491Z,34.79
2018-07-30T14:58:52.708Z,34.67
2018-07-30T15:01:21.824Z,34.44
2018-07-30T15:03:50.928Z,34.08
2018-07-30T15:06:20.118Z,33.98
2018-07-30T15:08:49.250Z,33.95
2018-07-30T15:11:18.400Z,34.08
2018-07-30T15:13:47.509Z,34.20
2018-07-30T15:16:16.673Z,34.29
2018-07-30T15:18:45.756Z,34.27
2018-07-30T15:21:14.873Z,34.27
2018-07-30T15:23:43.962Z,34.16
2018-07-30T15:26:13.097Z,34.18
2018-07-30T15:28:42.257Z,34.30
2018-07-30T15:31:11.392Z,34.26
2018-07-30T15:33:40.464Z,34.15
2018-07-30T15:36:09.543Z,34.22
2018-07-30T15:38:38.634Z,34.29
2018-07-30T15:41:07.781Z,34.30
2018-07-30T15:43:36.883Z,34.41
2018-07-30T15:46:06.025Z,34.44
2018-07-30T15:48:35.255Z,34.31
2018-07-30T15:51:04.420Z,34.28
2018-07-30T15:53:33.644Z,34.20
2018-07-30T15:56:02.880Z,34.12
2018-07-30T15:58:32.006Z,34.11
2018-07-30T16:01:01.111Z,34.12
2018-07-30T16:03:30.231Z,34.11
2018-07-30T16:05:59.320Z,34.20
2018-07-30T16:08:34.928Z,34.24
2018-07-30T16:11:04.028Z,34.17
2018-07-30T16:13:33.170Z,34.22
2018-07-30T16:16:02.244Z,34.26
2018-07-30T16:18:31.449Z,34.18
2018-07-30T16:21:00.528Z,33.90
2018-07-30T16:23:29.702Z,33.85
2018-07-30T16:25:59.220Z,33.79
2018-07-30T16:28:28.339Z,33.76
2018-07-30T16:30:57.553Z,33.73
2018-07-30T16:33:26.735Z,33.80
2018-07-30T16:35:59.433Z,33.90
2018-07-30T16:38:29.491Z,33.90
2018-07-30T16:40:58.612Z,33.89
2018-07-30T16:43:27.726Z,33.94
2018-07-30T16:45:57.118Z,34.02
2018-07-30T16:48:27.185Z,34.03
2018-07-30T16:50:57.018Z,34.09
2018-07-30T16:53:26.826Z,34.08
2018-07-30T16:55:56.809Z,34.11
2018-07-30T16:58:27.112Z,34.13
2018-07-30T17:00:58.105Z,34.18
2018-07-30T17:03:28.395Z,34.23
2018-07-30T17:05:58.637Z,34.21
2018-07-30T17:08:27.821Z,34.15
2018-07-30T17:10:56.995Z,34.19
2018-07-30T17:13:26.096Z,34.23
2018-07-30T17:15:55.184Z,34.31
2018-07-30T17:18:24.288Z,34.41
2018-07-30T17:20:53.416Z,34.42
2018-07-30T17:23:22.488Z,34.38
2018-07-30T17:25:51.696Z,34.21
2018-07-30T17:28:20.853Z,34.14
2018-07-30T17:30:49.996Z,34.06
2018-07-30T17:33:19.060Z,34.07
2018-07-30T17:35:48.179Z,33.95
2018-07-30T17:38:17.256Z,33.97
2018-07-30T17:40:46.366Z,33.94
2018-07-30T17:43:15.527Z,33.90
2018-07-30T17:45:44.662Z,33.84
2018-07-30T17:48:13.891Z,33.70
2018-07-30T17:50:43.069Z,33.64
2018-07-30T17:53:12.201Z,33.54
2018-07-30T17:55:41.225Z,33.40
2018-07-30T17:58:10.322Z,33.35
2018-07-30T18:00:39.421Z,33.28
2018-07-30T18:03:08.569Z,33.24
2018-07-30T18:05:37.644Z,33.27
2018-07-30T18:08:07.103Z,33.26
2018-07-30T18:10:36.192Z,33.21
2018-07-30T18:13:05.336Z,33.11
2018-07-30T18:15:34.424Z,33.08
2018-07-30T18:18:03.537Z,33.03
2018-07-30T18:20:32.668Z,32.95
2018-07-30T18:23:01.772Z,32.94
2018-07-30T18:25:30.867Z,32.97
2018-07-30T18:27:59.998Z,32.94
2018-07-30T18:30:29.159Z,32.96
2018-07-30T18:32:58.372Z,32.96
2018-07-30T18:35:27.905Z,32.90
2018-07-30T18:37:57.020Z,32.87
2018-07-30T18:40:26.184Z,32.87
2018-07-30T18:42:55.334Z,32.86
2018-07-30T18:45:24.400Z,32.90
2018-07-30T18:47:53.496Z,32.89
2018-07-30T18:50:22.584Z,32.80
2018-07-30T18:52:52.021Z,32.71
2018-07-30T18:55:21.109Z,32.60
2018-07-30T18:57:50.686Z,32.51
2018-07-30T19:00:19.880Z,32.42
2018-07-30T19:02:49.076Z,32.27
2018-07-30T19:05:18.162Z,32.20
2018-07-30T19:07:47.321Z,32.13
2018-07-30T19:10:20.508Z,32.09
2018-07-30T19:12:50.018Z,32.01
2018-07-30T19:15:19.088Z,31.92
2018-07-30T19:17:48.208Z,31.81
2018-07-30T19:20:17.308Z,31.71
2018-07-30T19:22:46.397Z,31.64
2018-07-30T19:25:15.492Z,31.71
2018-07-30T19:27:44.572Z,31.74
2018-07-30T19:30:13.760Z,31.73
2018-07-30T19:32:42.839Z,31.66
2018-07-30T19:35:11.940Z,31.63
2018-07-30T19:37:41.126Z,31.59
2018-07-30T19:40:10.231Z,31.53
2018-07-30T19:42:39.304Z,31.47
2018-07-30T19:45:08.500Z,31.40
2018-07-30T19:47:37.577Z,31.32
2018-07-30T19:50:06.727Z,31.26
2018-07-30T19:52:36.480Z,31.23
2018-07-30T19:55:06.160Z,31.20
2018-07-30T19:57:35.271Z,31.11
2018-07-30T20:00:06.013Z,31.02
2018-07-30T20:02:35.188Z,30.94
2018-07-30T20:05:04.809Z,30.83
2018-07-30T20:07:33.929Z,30.82
2018-07-30T20:10:08.199Z,30.71
2018-07-30T20:12:37.269Z,30.68
2018-07-30T20:15:07.112Z,30.64
2018-07-30T20:17:36.216Z,30.62
2018-07-30T20:20:07.356Z,30.57
2018-07-30T20:22:36.428Z,30.54
2018-07-30T20:25:06.037Z,30.51
2018-07-30T20:27:35.127Z,30.47
2018-07-30T20:30:04.950Z,30.36
2018-07-30T20:32:34.020Z,30.27
2018-07-30T20:35:03.612Z,30.21
2018-07-30T20:37:32.696Z,30.12
2018-07-30T20:40:01.852Z,29.92
2018-07-30T20:42:31.000Z,29.68
2018-07-30T20:45:00.160Z,29.52
2018-07-30T20:47:29.657Z,29.31
2018-07-30T20:49:58.764Z,29.19
2018-07-30T20:52:27.931Z,29.05
2018-07-30T20:54:57.052Z,29.01
2018-07-30T20:57:26.200Z,29.06
2018-07-30T20:59:55.272Z,28.98
2018-07-30T21:02:24.385Z,28.94
2018-07-30T21:04:53.449Z,28.95
2018-07-30T21:07:22.713Z,28.90
2018-07-30T21:09:51.820Z,28.78
2018-07-30T21:12:20.943Z,28.77
2018-07-30T21:14:50.032Z,28.81
2018-07-30T21:17:19.170Z,28.73
2018-07-30T21:19:48.227Z,28.60
2018-07-30T21:22:17.356Z,28.45
2018-07-30T21:24:46.425Z,28.47
2018-07-30T21:27:15.541Z,28.41
2018-07-30T21:29:44.613Z,28.38
2018-07-30T21:32:13.736Z,28.33
2018-07-30T21:34:42.817Z,28.21
2018-07-30T21:37:11.976Z,28.26
2018-07-30T21:39:41.052Z,28.27
2018-07-30T21:42:10.152Z,28.27
2018-07-30T21:44:39.247Z,28.21
2018-07-30T21:47:08.340Z,28.19
2018-07-30T21:49:37.461Z,28.14
2018-07-30T21:52:06.555Z,28.19
2018-07-30T21:54:35.665Z,28.16
2018-07-30T21:57:04.862Z,28.21
2018-07-30T21:59:33.956Z,28.14
2018-07-30T22:02:03.068Z,28.08
2018-07-30T22:04:32.143Z,28.08
2018-07-30T22:07:01.244Z,28.03
2018-07-30T22:09:30.364Z,28.02
2018-07-30T22:11:59.484Z,28.00
2018-07-30T22:14:28.564Z,27.99
2018-07-30T22:16:57.660Z,28.03
2018-07-30T22:19:26.760Z,27.96
2018-07-30T22:21:55.844Z,27.89
2018-07-30T22:24:24.940Z,27.86
2018-07-30T22:26:54.032Z,27.97
2018-07-30T22:29:23.120Z,27.90
2018-07-30T22:31:52.231Z,27.88
2018-07-30T22:34:21.328Z,27.87
2018-07-30T22:36:50.419Z,27.81
2018-07-30T22:39:19.537Z,27.88
2018-07-30T22:41:48.608Z,28.03
2018-07-30T22:44:17.708Z,28.12
2018-07-30T22:46:46.799Z,28.08
2018-07-30T22:49:15.921Z,27.98
2018-07-30T22:51:44.987Z,27.99
2018-07-30T22:54:14.104Z,27.95
2018-07-30T22:56:43.184Z,27.91
2018-07-30T22:59:12.285Z,27.51
2018-07-30T23:01:41.363Z,27.37
2018-07-30T23:04:10.480Z,27.38
2018-07-30T23:06:39.650Z,27.46
2018-07-30T23:09:08.743Z,27.26
2018-07-30T23:11:37.808Z,27.21
2018-07-30T23:14:06.948Z,27.30
2018-07-30T23:16:36.035Z,27.33
2018-07-30T23:19:05.128Z,27.24
2018-07-30T23:21:34.236Z,27.08
2018-07-30T23:24:03.321Z,27.14
2018-07-30T23:26:32.424Z,27.18
2018-07-30T23:29:01.504Z,27.12
2018-07-30T23:31:30.848Z,27.05
2018-07-30T23:33:59.912Z,27.06
2018-07-30T23:36:29.012Z,27.10
2018-07-30T23:38:58.071Z,27.04
2018-07-30T23:41:27.188Z,26.88
2018-07-30T23:43:56.252Z,26.86
2018-07-30T23:46:25.644Z,26.85
2018-07-30T23:48:54.716Z,26.80
2018-07-30T23:51:23.817Z,26.75
2018-07-30T23:53:52.955Z,26.71
2018-07-30T23:56:21.980Z,26.64
2018-07-30T23:58:51.043Z,26.59
